Inwood, Indiana
Current Conditions -  °F | °C
As of 12:55 PM on Sunday 21 Dec 2014 (Local Time) from KOXI Reporting Station
Overcast Overcast  
Wind Chill: 27°   Ceiling: 3900
Heat Index: 35°   Visibility: 10mi
Dew Point: 24°   Wind: 13mph
Humidity: 64%   Direction: 170°S
Pressure: 30.2"   Gusts: NA
Location:  41.3572°N, 86.3281°W
Report Text: KOXI 211755Z AUTO 17011KT 10SM OVC039 02/M04 A3020 RMK AO1 T00191043 10273 21130
Loading
Personal Weather Stations






























Interactive Weather Map New forecast layout! Learn more

10-Day Weather Forecast

Advertisements
Track Severe Weather on mobile